Winton Post Office, Australia
Current Conditions -  °F | °C
As of 6:00 AM on Thursday 27 Nov 2014 (Local Time) from YLRE Reporting Station
Clear Clear  
Wind Chill: 81°   Ceiling: Unl
Heat Index: 82°   Visibility: 6mi
Dew Point: 63°   Wind: 23mph
Humidity: 54%   Direction: 40°NE
Pressure: 29.88"   Gusts: NA
Location:  22.38°S, 143.03°E
Report Text: YLRE 262000Z AUTO 04020KT 9999 // NCD 27/17 Q1012
Loading
Personal Weather Stations






























Interactive Weather Map New forecast layout! Learn more

10-Day Weather Forecast

Advertisements
Track Severe Weather on mobile